createdAt,value
2022-09-27T00:01:17.622Z,11.80
2022-09-27T00:03:44.419Z,11.80
2022-09-27T00:06:15.473Z,11.80
2022-09-27T00:08:42.562Z,11.80
2022-09-27T00:11:20.368Z,11.80
2022-09-27T00:13:47.104Z,11.70
2022-09-27T00:16:13.921Z,11.70
2022-09-27T00:18:40.702Z,11.70
2022-09-27T00:21:09.111Z,11.70
2022-09-27T00:23:36.365Z,11.70
2022-09-27T00:26:03.576Z,11.70
2022-09-27T00:28:30.971Z,11.70
2022-09-27T00:30:58.180Z,11.70
2022-09-27T00:33:25.437Z,11.70
2022-09-27T00:35:52.201Z,11.70
2022-09-27T00:38:18.950Z,11.60
2022-09-27T00:40:46.360Z,11.70
2022-09-27T00:43:23.020Z,11.70
2022-09-27T00:45:54.177Z,11.70
2022-09-27T00:48:23.508Z,11.70
2022-09-27T00:50:52.620Z,11.70
2022-09-27T00:53:24.784Z,11.70
2022-09-27T00:55:57.219Z,11.60
2022-09-27T00:58:27.256Z,11.70
2022-09-27T01:00:55.920Z,11.60
2022-09-27T01:03:30.787Z,11.60
2022-09-27T01:05:58.686Z,11.60
2022-09-27T01:08:25.335Z,11.60
2022-09-27T01:11:05.739Z,11.60
2022-09-27T01:13:36.886Z,11.60
2022-09-27T01:16:15.443Z,11.60
2022-09-27T01:18:45.306Z,11.60
2022-09-27T01:21:22.757Z,11.60
2022-09-27T01:23:55.756Z,11.60
2022-09-27T01:26:37.895Z,11.60
2022-09-27T01:29:18.886Z,11.60
2022-09-27T01:31:51.736Z,11.60
2022-09-27T01:34:24.732Z,11.50
2022-09-27T01:36:51.566Z,11.50
2022-09-27T01:39:24.928Z,11.50
2022-09-27T01:42:04.046Z,11.60
2022-09-27T01:44:37.601Z,11.50
2022-09-27T01:47:23.438Z,11.60
2022-09-27T01:49:50.129Z,11.60
2022-09-27T01:52:18.303Z,11.60
2022-09-27T01:54:46.879Z,11.60
2022-09-27T01:57:16.982Z,11.60
2022-09-27T01:59:47.138Z,11.60
2022-09-27T02:02:14.443Z,11.60
2022-09-27T02:04:42.168Z,11.60
2022-09-27T02:07:11.552Z,11.60
2022-09-27T02:09:41.970Z,11.60
2022-09-27T02:12:11.482Z,11.50
2022-09-27T02:14:41.758Z,11.50
2022-09-27T02:17:27.565Z,11.50
2022-09-27T02:20:09.433Z,11.50
2022-09-27T02:22:51.222Z,11.50
2022-09-27T02:25:26.146Z,11.50
2022-09-27T02:28:08.389Z,11.50
2022-09-27T02:30:36.587Z,11.50
2022-09-27T02:33:03.323Z,11.40
2022-09-27T02:35:33.771Z,11.50
2022-09-27T02:38:01.093Z,11.40
2022-09-27T02:40:31.281Z,11.40
2022-09-27T02:42:58.650Z,11.50
2022-09-27T02:45:30.056Z,11.40
2022-09-27T02:48:09.147Z,11.40
2022-09-27T02:50:35.809Z,11.40
2022-09-27T02:53:08.094Z,11.40
2022-09-27T02:55:47.082Z,11.40
2022-09-27T02:58:20.011Z,11.40
2022-09-27T03:00:52.906Z,11.30
2022-09-27T03:03:42.704Z,11.30
2022-09-27T03:06:11.274Z,11.30
2022-09-27T03:08:38.556Z,11.30
2022-09-27T03:11:05.582Z,11.30
2022-09-27T03:13:32.397Z,11.30
2022-09-27T03:16:01.606Z,11.40
2022-09-27T03:18:28.647Z,11.30
2022-09-27T03:20:55.341Z,11.30
2022-09-27T03:23:22.047Z,11.40
2022-09-27T03:25:48.875Z,11.40
2022-09-27T03:28:15.906Z,11.30
2022-09-27T03:30:42.642Z,11.30
2022-09-27T03:33:09.407Z,11.30
2022-09-27T03:35:36.919Z,11.30
2022-09-27T03:38:03.950Z,11.40
2022-09-27T03:40:31.118Z,11.30
2022-09-27T03:42:58.009Z,11.30
2022-09-27T03:45:24.870Z,11.30
2022-09-27T03:47:51.659Z,11.30
2022-09-27T03:50:18.381Z,11.30
2022-09-27T03:52:45.122Z,11.30
2022-09-27T03:55:12.271Z,11.30
2022-09-27T03:57:39.210Z,11.20
2022-09-27T04:00:06.856Z,11.20
2022-09-27T04:02:33.586Z,11.20
2022-09-27T04:05:00.458Z,11.20
2022-09-27T04:07:27.122Z,11.10
2022-09-27T04:09:53.793Z,11.10
2022-09-27T04:12:20.464Z,11.10
2022-09-27T04:14:47.361Z,11.00
2022-09-27T04:17:14.100Z,11.10
2022-09-27T04:19:40.878Z,11.10
2022-09-27T04:22:08.124Z,11.00
2022-09-27T04:24:34.766Z,11.00
2022-09-27T04:27:01.525Z,11.00
2022-09-27T04:29:28.372Z,11.00
2022-09-27T04:31:55.999Z,11.10
2022-09-27T04:34:45.754Z,11.00
2022-09-27T04:37:12.792Z,10.90
2022-09-27T04:39:40.285Z,10.90
2022-09-27T04:42:07.185Z,10.90
2022-09-27T04:44:33.955Z,10.90
2022-09-27T04:47:00.749Z,10.90
2022-09-27T04:49:27.914Z,10.90
2022-09-27T04:51:54.577Z,10.90
2022-09-27T04:54:21.757Z,10.80
2022-09-27T04:56:48.913Z,10.70
2022-09-27T04:59:15.973Z,10.70
2022-09-27T05:01:42.838Z,10.70
2022-09-27T05:04:09.610Z,10.70
2022-09-27T05:06:36.312Z,10.70
2022-09-27T05:09:03.354Z,10.70
2022-09-27T05:11:30.152Z,10.80
2022-09-27T05:13:56.834Z,10.80
2022-09-27T05:16:25.019Z,10.80
2022-09-27T05:18:51.812Z,10.80
2022-09-27T05:21:18.598Z,10.80
2022-09-27T05:23:47.834Z,10.70
2022-09-27T05:26:14.806Z,10.70
2022-09-27T05:28:44.365Z,10.80
2022-09-27T05:31:13.380Z,10.80
2022-09-27T05:33:40.688Z,10.80
2022-09-27T05:36:08.770Z,10.80
2022-09-27T05:38:36.318Z,10.80
2022-09-27T05:41:03.401Z,10.80
2022-09-27T05:43:30.999Z,10.70
2022-09-27T05:45:58.692Z,10.80
2022-09-27T05:48:25.523Z,10.80
2022-09-27T05:50:52.150Z,10.80
2022-09-27T05:53:18.841Z,10.80
2022-09-27T05:55:45.493Z,10.90
2022-09-27T05:58:15.844Z,10.90
2022-09-27T06:00:46.232Z,10.90
2022-09-27T06:03:13.567Z,10.90
2022-09-27T06:05:40.495Z,10.90
2022-09-27T06:08:09.084Z,10.90
2022-09-27T06:10:35.776Z,10.90
2022-09-27T06:13:05.435Z,10.90
2022-09-27T06:15:32.827Z,10.90
2022-09-27T06:18:06.899Z,10.90
2022-09-27T06:20:34.271Z,10.90
2022-09-27T06:23:08.001Z,11.00
2022-09-27T06:25:35.392Z,11.00
2022-09-27T06:28:02.664Z,11.00
2022-09-27T06:30:29.715Z,11.00
2022-09-27T06:32:57.576Z,11.00
2022-09-27T06:35:25.082Z,11.00
2022-09-27T06:37:52.308Z,11.00
2022-09-27T06:40:19.279Z,11.10
2022-09-27T06:42:46.386Z,11.10
2022-09-27T06:45:13.043Z,11.20
2022-09-27T06:47:39.714Z,11.20
2022-09-27T06:50:06.884Z,11.20
2022-09-27T06:52:35.079Z,11.20
2022-09-27T06:55:02.078Z,11.30
2022-09-27T06:57:55.196Z,11.30
2022-09-27T07:00:24.775Z,11.40
2022-09-27T07:02:51.485Z,11.40
2022-09-27T07:05:18.748Z,11.50
2022-09-27T07:07:47.884Z,11.50
2022-09-27T07:10:14.926Z,11.50
2022-09-27T07:12:41.596Z,11.50
2022-09-27T07:15:08.457Z,11.50
2022-09-27T07:17:35.930Z,11.50
2022-09-27T07:20:02.873Z,11.60
2022-09-27T07:22:30.923Z,11.60
2022-09-27T07:24:57.560Z,11.60
2022-09-27T07:27:25.387Z,11.60
2022-09-27T07:29:52.129Z,11.60
2022-09-27T07:32:18.771Z,11.60
2022-09-27T07:34:45.403Z,11.60
2022-09-27T07:37:12.719Z,11.60
2022-09-27T07:39:39.697Z,11.70
2022-09-27T07:42:06.349Z,11.70
2022-09-27T07:44:33.076Z,11.80
2022-09-27T07:46:59.746Z,12.00
2022-09-27T07:49:26.959Z,12.00
2022-09-27T07:51:53.700Z,12.00
2022-09-27T07:54:20.727Z,12.10
2022-09-27T07:56:47.506Z,12.20
2022-09-27T07:59:14.155Z,12.20
2022-09-27T08:01:40.817Z,12.30
2022-09-27T08:04:07.563Z,12.40
2022-09-27T08:06:34.278Z,12.40
2022-09-27T08:09:01.783Z,12.40
2022-09-27T08:11:28.473Z,12.40
2022-09-27T08:13:57.111Z,12.30
2022-09-27T08:16:23.971Z,12.30
2022-09-27T08:18:50.687Z,12.40
2022-09-27T08:21:17.588Z,12.40
2022-09-27T08:23:44.263Z,12.60
2022-09-27T08:26:10.947Z,12.70
2022-09-27T08:28:37.744Z,12.80
2022-09-27T08:31:04.457Z,12.80
2022-09-27T08:33:33.483Z,12.90
2022-09-27T08:36:01.896Z,12.90
2022-09-27T08:38:29.142Z,12.90
2022-09-27T08:41:02.263Z,12.90
2022-09-27T08:43:52.577Z,12.90
2022-09-27T08:46:37.882Z,12.90
2022-09-27T08:49:07.061Z,12.80
2022-09-27T08:51:34.490Z,12.70
2022-09-27T08:54:07.110Z,12.70
2022-09-27T08:56:34.142Z,12.80
2022-09-27T08:59:21.992Z,12.90
2022-09-27T09:01:50.055Z,12.90
2022-09-27T09:04:49.267Z,13.00
2022-09-27T09:07:31.991Z,13.20
2022-09-27T09:10:06.604Z,13.30
2022-09-27T09:12:47.480Z,13.60
2022-09-27T09:15:23.295Z,13.70
2022-09-27T09:17:52.960Z,13.60
2022-09-27T09:20:31.941Z,13.70
2022-09-27T09:23:13.886Z,13.90
2022-09-27T09:25:50.631Z,13.90
2022-09-27T09:28:17.274Z,13.80
2022-09-27T09:30:49.744Z,13.80
2022-09-27T09:33:28.420Z,13.90
2022-09-27T09:35:59.506Z,14.10
2022-09-27T09:38:29.794Z,14.20
2022-09-27T09:41:08.947Z,14.20
2022-09-27T09:43:48.561Z,14.30
2022-09-27T09:46:22.096Z,14.50
2022-09-27T09:49:05.045Z,14.40
2022-09-27T09:51:44.211Z,14.20
2022-09-27T09:54:16.019Z,14.30
2022-09-27T09:56:45.825Z,14.20
2022-09-27T09:59:19.377Z,14.20
2022-09-27T10:01:48.072Z,14.00
2022-09-27T10:04:18.276Z,13.80
2022-09-27T10:06:45.003Z,13.60
2022-09-27T10:09:13.466Z,13.60
2022-09-27T10:11:41.495Z,13.40
2022-09-27T10:14:12.566Z,13.50
2022-09-27T10:16:42.414Z,13.30
2022-09-27T10:19:10.105Z,13.10
2022-09-27T10:21:39.990Z,13.00
2022-09-27T10:24:16.526Z,12.90
2022-09-27T10:26:45.220Z,12.70
2022-09-27T10:29:31.525Z,12.60
2022-09-27T10:32:03.366Z,12.60
2022-09-27T10:34:34.900Z,12.10
2022-09-27T10:37:04.762Z,11.90
2022-09-27T10:39:31.743Z,11.90
2022-09-27T10:41:58.665Z,11.80
2022-09-27T10:44:29.946Z,11.80
2022-09-27T10:46:58.617Z,11.80
2022-09-27T10:49:25.377Z,12.00
2022-09-27T10:51:56.988Z,12.00
2022-09-27T10:54:27.715Z,12.20
2022-09-27T10:56:56.953Z,12.20
2022-09-27T10:59:24.148Z,12.30
2022-09-27T11:01:51.052Z,12.30
2022-09-27T11:04:19.613Z,12.30
2022-09-27T11:06:46.392Z,12.40
2022-09-27T11:09:18.841Z,12.40
2022-09-27T11:11:46.405Z,12.50
2022-09-27T11:14:23.934Z,12.50
2022-09-27T11:17:29.395Z,12.60
2022-09-27T11:19:56.343Z,12.50
2022-09-27T11:22:41.730Z,12.60
2022-09-27T11:25:20.787Z,12.60
2022-09-27T11:27:50.688Z,12.50
2022-09-27T11:30:21.632Z,12.40
2022-09-27T11:32:54.373Z,12.30
2022-09-27T11:35:38.888Z,12.30
2022-09-27T11:38:11.549Z,12.00
2022-09-27T11:40:44.798Z,11.60
2022-09-27T11:43:17.722Z,11.30
2022-09-27T11:46:15.233Z,11.30
2022-09-27T11:49:02.694Z,11.40
2022-09-27T11:51:49.603Z,11.60
2022-09-27T11:54:35.013Z,11.70
2022-09-27T11:57:23.230Z,11.80
2022-09-27T12:00:04.921Z,11.90
2022-09-27T12:02:50.353Z,11.90
2022-09-27T12:05:20.589Z,11.90
2022-09-27T12:07:54.749Z,12.00
2022-09-27T12:10:21.790Z,12.00
2022-09-27T12:12:53.531Z,12.10
2022-09-27T12:15:21.537Z,12.00
2022-09-27T12:17:50.316Z,11.80
2022-09-27T12:20:22.850Z,11.80
2022-09-27T12:23:00.849Z,12.00
2022-09-27T12:25:30.329Z,11.70
2022-09-27T12:28:01.072Z,11.80
2022-09-27T12:30:28.708Z,12.00
2022-09-27T12:32:55.347Z,12.10
2022-09-27T12:35:24.390Z,12.10
2022-09-27T12:37:54.116Z,12.30
2022-09-27T12:40:20.822Z,12.40
2022-09-27T12:42:50.788Z,12.50
2022-09-27T12:45:23.917Z,12.80
2022-09-27T12:48:02.262Z,12.80
2022-09-27T12:50:49.195Z,13.20
2022-09-27T12:53:22.893Z,13.00
2022-09-27T12:56:03.735Z,13.10
2022-09-27T12:58:42.511Z,13.20
2022-09-27T13:01:27.999Z,13.70
2022-09-27T13:03:54.704Z,13.70
2022-09-27T13:06:47.302Z,13.70
2022-09-27T13:09:30.701Z,13.80
2022-09-27T13:11:58.199Z,13.90
2022-09-27T13:14:26.322Z,13.80
2022-09-27T13:16:53.148Z,13.70
2022-09-27T13:19:38.492Z,13.70
2022-09-27T13:22:07.372Z,14.00
2022-09-27T13:24:44.794Z,14.00
2022-09-27T13:27:35.747Z,13.90
2022-09-27T13:30:08.479Z,13.80
2022-09-27T13:32:35.401Z,13.90
2022-09-27T13:35:21.763Z,13.80
2022-09-27T13:38:01.131Z,13.70
2022-09-27T13:40:46.277Z,13.70
2022-09-27T13:43:13.263Z,13.70
2022-09-27T13:45:52.195Z,13.90
2022-09-27T13:48:26.577Z,14.10
2022-09-27T13:51:13.566Z,13.90
2022-09-27T13:53:40.754Z,14.00
2022-09-27T13:56:28.190Z,14.00
2022-09-27T13:58:57.524Z,14.00
2022-09-27T14:01:24.434Z,13.80
2022-09-27T14:04:05.045Z,13.60
2022-09-27T14:06:35.261Z,13.50
2022-09-27T14:09:06.369Z,13.40
2022-09-27T14:11:36.183Z,13.40
2022-09-27T14:14:03.583Z,13.60
2022-09-27T14:16:32.790Z,13.60
2022-09-27T14:18:59.778Z,13.70
2022-09-27T14:21:34.424Z,13.80
2022-09-27T14:24:19.935Z,13.70
2022-09-27T14:26:47.294Z,13.70
2022-09-27T14:29:22.248Z,13.60
2022-09-27T14:32:05.836Z,13.60
2022-09-27T14:34:33.168Z,13.60
2022-09-27T14:37:18.437Z,13.60
2022-09-27T14:39:45.633Z,13.70
2022-09-27T14:42:22.711Z,13.70
2022-09-27T14:44:49.983Z,13.60
2022-09-27T14:47:18.511Z,13.70
2022-09-27T14:49:52.922Z,13.60
2022-09-27T14:52:27.749Z,13.50
2022-09-27T14:55:02.490Z,13.30
2022-09-27T14:57:32.895Z,13.50
2022-09-27T15:00:03.925Z,13.40
2022-09-27T15:02:33.291Z,13.20
2022-09-27T15:05:00.000Z,13.30
2022-09-27T15:07:27.834Z,13.20
2022-09-27T15:09:54.640Z,13.40
2022-09-27T15:12:25.807Z,13.20
2022-09-27T15:14:54.258Z,13.20
2022-09-27T15:17:21.503Z,13.10
2022-09-27T15:20:01.688Z,12.90
2022-09-27T15:22:36.012Z,13.00
2022-09-27T15:25:07.859Z,12.90
2022-09-27T15:27:34.588Z,12.80
2022-09-27T15:30:01.345Z,12.80
2022-09-27T15:32:28.554Z,12.80
2022-09-27T15:34:56.077Z,12.70
2022-09-27T15:37:33.813Z,12.70
2022-09-27T15:40:16.212Z,12.70
2022-09-27T15:42:59.483Z,12.60
2022-09-27T15:45:30.052Z,12.40
2022-09-27T15:48:05.839Z,12.30
2022-09-27T15:50:33.448Z,12.30
2022-09-27T15:53:00.287Z,12.30
2022-09-27T15:55:28.078Z,12.30
2022-09-27T15:57:59.243Z,12.30
2022-09-27T16:00:26.590Z,12.30
2022-09-27T16:02:53.952Z,12.20
2022-09-27T16:05:20.753Z,12.20
2022-09-27T16:07:47.426Z,12.20
2022-09-27T16:10:15.516Z,12.00
2022-09-27T16:12:42.211Z,12.00
2022-09-27T16:15:09.049Z,12.00
2022-09-27T16:17:37.899Z,12.00
2022-09-27T16:20:07.693Z,11.90
2022-09-27T16:22:34.477Z,11.90
2022-09-27T16:25:01.772Z,11.80
2022-09-27T16:27:29.334Z,11.80
2022-09-27T16:29:58.507Z,11.70
2022-09-27T16:32:25.645Z,11.60
2022-09-27T16:34:52.425Z,11.50
2022-09-27T16:37:19.402Z,11.40
2022-09-27T16:39:46.061Z,11.30
2022-09-27T16:42:13.662Z,11.20
2022-09-27T16:44:40.427Z,11.10
2022-09-27T16:47:10.108Z,11.10
2022-09-27T16:49:55.442Z,11.00
2022-09-27T16:52:22.227Z,11.00
2022-09-27T16:54:48.888Z,10.90
2022-09-27T16:57:15.529Z,10.80
2022-09-27T16:59:42.230Z,10.70
2022-09-27T17:02:09.557Z,10.70
2022-09-27T17:04:36.432Z,10.60
2022-09-27T17:07:03.166Z,10.50
2022-09-27T17:09:29.928Z,10.40
2022-09-27T17:11:56.554Z,10.30
2022-09-27T17:14:23.475Z,10.20
2022-09-27T17:16:50.987Z,10.10
2022-09-27T17:19:18.480Z,10.00
2022-09-27T17:21:45.796Z,9.90
2022-09-27T17:24:12.583Z,9.80
2022-09-27T17:26:39.552Z,9.80
2022-09-27T17:29:06.284Z,9.70
2022-09-27T17:31:34.928Z,9.80
2022-09-27T17:34:02.907Z,9.90
2022-09-27T17:36:31.157Z,10.00
2022-09-27T17:38:58.852Z,9.90
2022-09-27T17:41:26.585Z,9.90
2022-09-27T17:43:57.724Z,10.00
2022-09-27T17:46:28.581Z,9.90
2022-09-27T17:49:13.980Z,9.90
2022-09-27T17:51:41.419Z,9.80
2022-09-27T17:54:09.285Z,9.80
2022-09-27T17:56:40.414Z,9.80
2022-09-27T17:59:07.717Z,9.70
2022-09-27T18:01:35.738Z,9.70
2022-09-27T18:04:04.011Z,9.70
2022-09-27T18:06:30.691Z,9.70
2022-09-27T18:08:57.588Z,9.70
2022-09-27T18:11:29.390Z,9.70
2022-09-27T18:13:56.647Z,9.80
2022-09-27T18:16:29.696Z,9.80
2022-09-27T18:18:57.751Z,9.80
2022-09-27T18:21:26.676Z,9.80
2022-09-27T18:23:54.681Z,9.80
2022-09-27T18:26:24.447Z,9.90
2022-09-27T18:28:52.155Z,10.00
2022-09-27T18:31:20.355Z,10.00
2022-09-27T18:33:47.605Z,9.90
2022-09-27T18:36:20.999Z,10.00
2022-09-27T18:38:52.130Z,10.10
2022-09-27T18:41:19.681Z,10.20
2022-09-27T18:43:46.979Z,10.10
2022-09-27T18:46:35.181Z,10.10
2022-09-27T18:49:04.060Z,10.10
2022-09-27T18:51:31.088Z,10.10
2022-09-27T18:53:59.451Z,10.10
2022-09-27T18:56:27.334Z,10.10
2022-09-27T18:58:54.610Z,10.00
2022-09-27T19:01:22.146Z,10.00
2022-09-27T19:03:48.983Z,10.00
2022-09-27T19:06:20.333Z,10.00
2022-09-27T19:08:47.202Z,10.10
2022-09-27T19:11:15.124Z,10.20
2022-09-27T19:13:51.016Z,10.10
2022-09-27T19:16:18.288Z,10.00
2022-09-27T19:18:44.990Z,10.00
2022-09-27T19:21:13.135Z,10.00
2022-09-27T19:23:40.220Z,10.10
2022-09-27T19:26:08.050Z,10.10
2022-09-27T19:28:35.684Z,10.10
2022-09-27T19:31:06.287Z,10.00
2022-09-27T19:33:33.849Z,9.90
2022-09-27T19:36:01.542Z,9.90
2022-09-27T19:38:35.467Z,9.90
2022-09-27T19:41:02.611Z,9.90
2022-09-27T19:43:31.168Z,9.90
2022-09-27T19:46:04.402Z,9.90
2022-09-27T19:48:31.153Z,9.90
2022-09-27T19:50:58.531Z,10.00
2022-09-27T19:53:31.781Z,10.00
2022-09-27T19:56:03.476Z,10.00
2022-09-27T19:58:30.731Z,10.00
2022-09-27T20:01:01.772Z,10.00
2022-09-27T20:03:28.807Z,10.10
2022-09-27T20:05:58.329Z,10.00
2022-09-27T20:08:25.734Z,10.10
2022-09-27T20:10:53.394Z,10.00
2022-09-27T20:13:21.096Z,10.00
2022-09-27T20:15:47.725Z,10.00
2022-09-27T20:18:14.769Z,10.00
2022-09-27T20:20:41.658Z,10.00
2022-09-27T20:23:08.308Z,10.00
2022-09-27T20:25:34.942Z,9.90
2022-09-27T20:28:01.935Z,9.90
2022-09-27T20:30:28.577Z,9.90
2022-09-27T20:33:13.870Z,9.90
2022-09-27T20:35:40.888Z,10.00
2022-09-27T20:38:07.524Z,10.00
2022-09-27T20:40:34.269Z,10.00
2022-09-27T20:43:01.008Z,9.90
2022-09-27T20:45:27.687Z,9.90
2022-09-27T20:47:54.332Z,9.90
2022-09-27T20:50:20.973Z,9.90
2022-09-27T20:52:47.662Z,9.80
2022-09-27T20:55:15.035Z,9.80
2022-09-27T20:57:56.830Z,9.70
2022-09-27T21:00:24.477Z,9.70
2022-09-27T21:02:51.629Z,9.70
2022-09-27T21:05:18.877Z,9.70
2022-09-27T21:07:45.801Z,9.70
2022-09-27T21:10:12.533Z,9.70
2022-09-27T21:12:39.342Z,9.70
2022-09-27T21:15:06.649Z,9.70
2022-09-27T21:17:33.441Z,9.70
2022-09-27T21:20:01.521Z,9.80
2022-09-27T21:22:28.381Z,9.70
2022-09-27T21:24:55.275Z,9.70
2022-09-27T21:27:22.257Z,9.70
2022-09-27T21:29:49.022Z,9.70
2022-09-27T21:32:15.711Z,9.80
2022-09-27T21:34:42.369Z,9.80
2022-09-27T21:37:09.911Z,9.80
2022-09-27T21:39:36.532Z,9.80
2022-09-27T21:42:03.224Z,9.80
2022-09-27T21:44:29.854Z,9.80
2022-09-27T21:46:56.558Z,9.80
2022-09-27T21:49:23.325Z,9.80
2022-09-27T21:51:50.514Z,9.80
2022-09-27T21:54:17.364Z,9.70
2022-09-27T21:56:44.453Z,9.70
2022-09-27T21:59:12.715Z,9.70
2022-09-27T22:01:39.635Z,9.70
2022-09-27T22:04:06.913Z,9.70
2022-09-27T22:06:37.915Z,9.80
2022-09-27T22:09:06.185Z,9.80
2022-09-27T22:11:47.504Z,9.80
2022-09-27T22:14:16.077Z,9.80
2022-09-27T22:16:42.961Z,9.80
2022-09-27T22:19:11.339Z,9.80
2022-09-27T22:21:38.430Z,9.70
2022-09-27T22:24:07.989Z,9.70
2022-09-27T22:26:36.483Z,9.80
2022-09-27T22:29:03.670Z,9.80
2022-09-27T22:31:30.355Z,9.70
2022-09-27T22:33:58.225Z,9.70
2022-09-27T22:36:25.295Z,9.70
2022-09-27T22:38:52.608Z,9.70
2022-09-27T22:41:20.264Z,9.70
2022-09-27T22:43:47.186Z,9.70
2022-09-27T22:46:14.152Z,9.80
2022-09-27T22:48:40.997Z,9.70
2022-09-27T22:51:08.069Z,9.70
2022-09-27T22:53:34.875Z,9.70
2022-09-27T22:56:04.299Z,9.60
2022-09-27T22:58:31.770Z,9.50
2022-09-27T23:00:58.557Z,9.50
2022-09-27T23:03:25.497Z,9.40
2022-09-27T23:05:52.268Z,9.40
2022-09-27T23:08:18.920Z,9.40
2022-09-27T23:10:45.602Z,9.40
2022-09-27T23:13:12.208Z,9.30
2022-09-27T23:15:38.878Z,9.30
2022-09-27T23:18:06.493Z,9.30
2022-09-27T23:20:34.146Z,9.40
2022-09-27T23:23:00.840Z,9.40
2022-09-27T23:25:27.530Z,9.40
2022-09-27T23:27:54.321Z,9.40
2022-09-27T23:30:21.610Z,9.40
2022-09-27T23:32:55.590Z,9.50
2022-09-27T23:35:23.143Z,9.50
2022-09-27T23:37:52.472Z,9.50
2022-09-27T23:40:19.148Z,9.50
2022-09-27T23:42:45.988Z,9.50
2022-09-27T23:45:14.192Z,9.50
2022-09-27T23:47:40.904Z,9.50
2022-09-27T23:50:07.981Z,9.50
2022-09-27T23:52:34.649Z,9.50
2022-09-27T23:55:01.360Z,9.50
2022-09-27T23:57:28.053Z,9.60
2022-09-27T23:59:54.737Z,9.50
